Time;durP1;ratioP1;P1;durP2;ratioP2;P2;SDS_P1;SDS_P2;PMS_P1;PMS_P2;Temp;Humidity;BMP_temperature;BMP_pressure;BME280_temperature;BME280_humidity;BME280_pressure;Samples;Min_cycle;Max_cycle;Signal;HPM_P1;HPM_P2
2021/05/17 00:00:57;;;;;;;2.10;1.17;;;23.30;50.40;;;;;;5135436;28;20559;-86
2021/05/17 00:03:32;;;;;;;1.20;0.70;;;23.30;50.40;;;;;;5095856;28;20422;-86
2021/05/17 00:06:16;;;;;;;1.10;0.80;;;23.30;50.40;;;;;;5129529;28;20456;-86
2021/05/17 00:08:46;;;;;;;1.43;0.90;;;23.30;50.40;;;;;;5115405;28;20426;-83
2021/05/17 00:11:17;;;;;;;1.20;0.90;;;23.30;50.50;;;;;;5090316;28;20422;-84
2021/05/17 00:14:02;;;;;;;1.27;0.87;;;23.30;50.50;;;;;;5107852;28;20396;-84
2021/05/17 00:16:32;;;;;;;1.67;1.00;;;23.30;50.50;;;;;;5106541;28;20408;-84
2021/05/17 00:18:58;;;;;;;1.50;0.80;;;23.30;50.50;;;;;;5089369;28;20442;-83
2021/05/17 00:21:30;;;;;;;1.60;1.40;;;23.20;50.40;;;;;;5106154;28;20419;-83
2021/05/17 00:24:03;;;;;;;1.30;0.80;;;23.20;50.50;;;;;;5089929;28;20940;-84
2021/05/17 00:26:33;;;;;;;1.40;0.90;;;23.20;50.50;;;;;;5123355;28;20491;-83
2021/05/17 00:29:06;;;;;;;1.37;0.87;;;23.20;50.50;;;;;;5124446;28;20423;-83
2021/05/17 00:31:39;;;;;;;2.20;0.97;;;23.20;50.50;;;;;;5106661;28;20411;-84
2021/05/17 00:34:11;;;;;;;1.30;0.80;;;23.20;50.50;;;;;;5123392;28;20400;-83
2021/05/17 00:36:41;;;;;;;1.50;0.90;;;23.20;50.50;;;;;;5106257;28;20418;-84
2021/05/17 00:39:34;;;;;;;1.37;0.90;;;23.20;50.50;;;;;;5122808;28;20458;-83
2021/05/17 00:42:08;;;;;;;1.10;0.80;;;23.20;50.50;;;;;;5122706;28;20416;-83
2021/05/17 00:45:12;;;;;;;2.33;1.33;;;23.20;50.50;;;;;;5110324;28;20865;-83
2021/05/17 00:48:04;;;;;;;2.73;1.00;;;23.20;50.60;;;;;;5105564;28;20908;-83
2021/05/17 00:50:47;;;;;;;1.40;0.90;;;23.20;50.60;;;;;;5111190;28;20414;-83
2021/05/17 00:53:42;;;;;;;1.37;0.87;;;23.20;50.60;;;;;;5111382;28;20404;-83
2021/05/17 00:56:29;;;;;;;1.33;0.97;;;23.20;50.70;;;;;;5110240;28;20427;-84
2021/05/17 00:59:08;;;;;;;1.87;0.87;;;23.10;50.70;;;;;;5110966;28;20450;-83
2021/05/17 01:01:58;;;;;;;1.10;0.87;;;23.20;50.80;;;;;;5110338;28;20400;-84
2021/05/17 01:04:29;;;;;;;1.60;1.10;;;23.20;50.70;;;;;;5109051;28;20443;-83
2021/05/17 01:10:14;;;;;;;1.00;0.80;;;23.20;50.70;;;;;;5102825;28;20404;-84
2021/05/17 01:13:09;;;;;;;1.20;0.90;;;23.10;50.80;;;;;;5091933;28;20419;-84
2021/05/17 01:15:58;;;;;;;1.67;0.90;;;23.10;50.90;;;;;;5092289;28;20765;-83
2021/05/17 01:18:37;;;;;;;0.97;0.77;;;23.10;50.80;;;;;;5092106;28;20466;-84
2021/05/17 01:21:23;;;;;;;1.30;0.80;;;23.10;50.70;;;;;;5108802;28;20828;-84
2021/05/17 01:24:12;;;;;;;1.50;0.90;;;23.10;50.70;;;;;;5109545;28;20491;-83
2021/05/17 01:26:44;;;;;;;1.67;0.80;;;23.10;50.80;;;;;;5108843;28;20428;-84
2021/05/17 01:32:39;;;;;;;1.10;0.77;;;23.10;50.70;;;;;;5110885;28;20384;-84
2021/05/17 01:35:15;;;;;;;1.43;0.80;;;23.10;50.90;;;;;;5108621;28;20420;-84
2021/05/17 01:40:58;;;;;;;2.10;0.87;;;23.20;50.80;;;;;;5111412;28;20446;-86
2021/05/17 01:43:49;;;;;;;1.20;0.70;;;23.00;50.80;;;;;;5110159;28;20407;-86
2021/05/17 01:46:29;;;;;;;1.40;0.87;;;23.10;50.80;;;;;;5110806;28;20411;-86
2021/05/17 01:49:22;;;;;;;1.07;0.70;;;23.20;51.30;;;;;;5128063;28;20890;-86
2021/05/17 01:51:56;;;;;;;1.20;0.90;;;23.10;50.80;;;;;;5128082;28;20400;-86
2021/05/17 01:54:51;;;;;;;1.07;0.80;;;23.10;50.90;;;;;;5112258;28;20392;-85
2021/05/17 01:57:45;;;;;;;1.30;0.70;;;23.10;50.80;;;;;;5110319;28;20455;-85
2021/05/17 02:00:31;;;;;;;1.70;0.90;;;23.10;51.00;;;;;;5110264;28;20436;-86
2021/05/17 02:03:08;;;;;;;1.40;0.77;;;23.10;50.90;;;;;;5127762;28;20415;-86
2021/05/17 02:05:51;;;;;;;1.20;1.00;;;23.00;50.90;;;;;;5112289;28;20513;-84
2021/05/17 02:12:17;;;;;;;;;;;;;;;;;;;;;
2021/05/17 02:15:07;;;;;;;1.77;1.13;;;23.10;50.90;;;;;;5111463;28;20445;-84
2021/05/17 02:17:44;;;;;;;1.40;0.90;;;23.00;50.80;;;;;;5125262;28;20484;-84
2021/05/17 02:20:36;;;;;;;;;;;;;;;;;;;;;
2021/05/17 02:23:39;;;;;;;1.13;0.83;;;23.00;50.90;;;;;;5078681;28;20935;-86
2021/05/17 02:33:06;;;;;;;1.20;0.90;;;23.00;50.90;;;;;;5111109;28;20384;-86
2021/05/17 02:39:09;;;;;;;1.30;0.87;;;23.00;50.90;;;;;;5110581;28;20980;-85
2021/05/17 02:42:22;;;;;;;1.57;1.13;;;23.00;50.90;;;;;;5102614;28;20415;-86
2021/05/17 02:48:29;;;;;;;1.00;0.67;;;23.20;51.10;;;;;;4999228;28;20400;-84
2021/05/17 02:51:40;;;;;;;1.30;0.70;;;23.00;51.00;;;;;;4991310;28;20412;-83
2021/05/17 02:54:28;;;;;;;1.40;0.80;;;23.00;50.90;;;;;;4967800;29;20418;-83
2021/05/17 02:57:18;;;;;;;1.90;1.10;;;23.00;50.90;;;;;;4950005;29;20498;-86
2021/05/17 03:03:29;;;;;;;1.00;0.60;;;23.00;50.90;;;;;;4910919;29;20921;-84
2021/05/17 03:06:20;;;;;;;1.13;0.73;;;23.00;50.90;;;;;;4926351;29;20448;-83
2021/05/17 03:09:15;;;;;;;2.60;1.00;;;23.00;51.00;;;;;;4926821;29;20815;-83
2021/05/17 03:12:16;;;;;;;1.87;1.00;;;23.00;51.70;;;;;;4895814;29;20417;-83
2021/05/17 03:17:43;;;;;;;1.33;1.00;;;23.00;51.00;;;;;;4911089;29;20457;-84
2021/05/17 03:20:14;;;;;;;1.40;0.80;;;22.90;51.00;;;;;;4910506;29;20441;-83
2021/05/17 03:22:50;;;;;;;1.00;0.77;;;23.00;51.00;;;;;;4929662;29;20420;-84
2021/05/17 03:25:51;;;;;;;2.67;1.00;;;22.90;50.90;;;;;;5041135;28;20790;-84
2021/05/17 03:28:20;;;;;;;1.53;0.77;;;23.00;50.90;;;;;;5029664;28;20418;-83
2021/05/17 03:31:00;;;;;;;1.10;0.80;;;23.00;51.00;;;;;;5089657;28;20410;-83
2021/05/17 03:36:59;;;;;;;1.00;0.70;;;23.00;50.90;;;;;;5106017;28;20467;-87
2021/05/17 03:42:17;;;;;;;1.03;0.80;;;23.00;51.10;;;;;;5107882;28;20427;-86
2021/05/17 03:45:18;;;;;;;1.23;0.77;;;23.00;51.10;;;;;;5107819;28;20403;-86
2021/05/17 03:47:58;;;;;;;1.33;0.83;;;23.00;51.00;;;;;;5094260;28;20423;-85
2021/05/17 03:50:47;;;;;;;1.07;0.70;;;23.00;51.10;;;;;;5089103;28;20483;-85
2021/05/17 03:53:22;;;;;;;1.27;0.90;;;23.00;50.90;;;;;;5090259;28;20400;-86
2021/05/17 03:55:59;;;;;;;1.37;0.80;;;22.60;50.70;;;;;;5089944;28;20419;-85
2021/05/17 03:58:33;;;;;;;1.10;0.80;;;23.00;51.10;;;;;;5089940;28;20463;-85
2021/05/17 04:01:14;;;;;;;;;;;;;;;;;;;;;
2021/05/17 04:03:55;;;;;;;0.80;0.60;;;23.00;51.10;;;;;;5112052;28;20442;-86
2021/05/17 04:06:45;;;;;;;0.90;0.70;;;23.00;51.10;;;;;;5129220;28;20913;-85
2021/05/17 04:15:07;;;;;;;1.10;0.70;;;22.90;50.90;;;;;;5129870;28;20432;-86
2021/05/17 04:18:20;;;;;;;;;;;;;;;;;;;;;
2021/05/17 04:24:48;;;;;;;1.10;0.80;;;22.90;50.90;;;;;;5133269;28;20390;-86
2021/05/17 04:31:46;;;;;;;1.13;0.80;;;22.90;51.00;;;;;;5132196;28;20367;-85
2021/05/17 12:25:57;;;;;;;;;;;;;;;;;;;;;
2021/05/17 12:35:17;;;;;;;8.10;5.90;;;23.50;51.10;;;;;;4892189;29;20401;-86
2021/05/17 13:15:57;;;;;;;;;;;;;;;;;;;;;
2021/05/17 13:31:44;;;;;;;7.80;4.80;;;23.50;51.10;;;;;;4933979;29;20403;-84
2021/05/17 13:34:16;;;;;;;7.73;5.37;;;23.60;51.10;;;;;;4935352;29;20423;-83
2021/05/17 13:49:44;;;;;;;7.47;4.73;;;23.60;51.00;;;;;;4912797;29;20464;-85
2021/05/17 13:52:44;;;;;;;5.47;4.40;;;23.50;50.90;;;;;;4912613;29;20425;-84
2021/05/17 13:58:34;;;;;;;5.37;4.40;;;23.60;50.90;;;;;;4905828;29;20531;-81
2021/05/17 14:01:02;;;;;;;4.80;4.10;;;23.60;50.90;;;;;;4914757;29;20445;-81
2021/05/17 14:03:29;;;;;;;5.27;4.00;;;23.60;50.90;;;;;;4915346;29;20416;-79
2021/05/17 14:05:56;;;;;;;5.97;3.70;;;23.70;50.90;;;;;;4944584;29;20522;-80
2021/05/17 14:08:28;;;;;;;6.77;4.50;;;23.70;50.80;;;;;;4937845;29;20425;-81
2021/05/17 14:10:53;;;;;;;4.93;3.93;;;23.70;50.70;;;;;;4954523;29;20411;-80
2021/05/17 14:13:26;;;;;;;6.40;3.77;;;23.80;50.70;;;;;;4955159;29;20426;-81
2021/05/17 14:15:52;;;;;;;3.90;3.10;;;23.80;50.70;;;;;;4937701;29;20191;-80
2021/05/17 14:18:17;;;;;;;7.03;3.60;;;23.80;50.60;;;;;;4937071;29;20466;-80
2021/05/17 14:27:13;;;;;;;4.40;3.30;;;23.90;50.50;;;;;;4972452;29;20393;-83
2021/05/17 14:29:48;;;;;;;4.13;3.13;;;24.00;50.50;;;;;;4972400;29;20501;-84
2021/05/17 14:32:14;;;;;;;4.67;3.10;;;23.90;50.50;;;;;;4955628;29;20453;-86
2021/05/17 14:34:52;;;;;;;7.03;3.80;;;23.90;50.40;;;;;;4955833;29;20421;-90
2021/05/17 14:44:06;;;;;;;3.20;2.77;;;23.90;50.20;;;;;;4911895;29;20428;-84
2021/05/17 14:46:41;;;;;;;4.13;2.50;;;23.80;50.30;;;;;;4911416;29;21053;-84
2021/05/17 14:49:25;;;;;;;;;;;;;;;;;;;;;
2021/05/17 14:51:51;;;;;;;3.90;2.63;;;23.90;50.30;;;;;;4912868;29;20475;-87
2021/05/17 14:55:13;;;;;;;4.83;2.60;;;23.90;50.30;;;;;;4896369;29;20492;-86
2021/05/17 15:05:11;;;;;;;3.13;1.93;;;23.90;50.10;;;;;;4854878;29;20423;-85
2021/05/17 15:07:54;;;;;;;;;;;;;;;;;;;;;
2021/05/17 15:10:36;;;;;;;2.60;2.10;;;23.90;50.20;;;;;;4862610;29;20452;-85
2021/05/17 15:13:04;;;;;;;2.27;1.87;;;23.80;50.10;;;;;;4863217;29;20481;-84
2021/05/17 15:15:48;;;;;;;2.80;1.87;;;23.90;50.10;;;;;;4876466;29;20428;-84
2021/05/17 15:18:38;;;;;;;2.57;1.90;;;23.90;50.10;;;;;;4892417;29;20499;-85
2021/05/17 15:21:20;;;;;;;3.50;2.27;;;23.90;50.10;;;;;;4891812;29;20477;-89
2021/05/17 15:24:36;;;;;;;;;;;;;;;;;;;;;
2021/05/17 15:37:09;;;;;;;2.90;2.00;;;23.90;50.10;;;;;;4964166;28;20446;-88
2021/05/17 15:39:45;;;;;;;3.77;2.00;;;23.90;50.20;;;;;;5010525;28;20543;-87
2021/05/17 15:42:21;;;;;;;;;;;;;;;;;;;;;
2021/05/17 15:44:55;;;;;;;3.83;2.33;;;23.90;50.10;;;;;;5011693;28;20430;-88
2021/05/17 15:58:02;;;;;;;;;;;;;;;;;;;;;
2021/05/17 16:00:47;;;;;;;;;;;;;;;;;;;;;
2021/05/17 16:03:46;;;;;;;2.40;1.80;;;24.00;50.20;;;;;;4971533;29;20421;-83
2021/05/17 16:06:15;;;;;;;2.37;1.70;;;24.00;50.20;;;;;;4952749;29;20578;-83
2021/05/17 16:12:16;;;;;;;2.53;2.00;;;24.00;50.20;;;;;;4956280;29;20494;-85
2021/05/17 16:15:03;;;;;;;2.00;1.60;;;24.00;50.20;;;;;;4964916;28;20468;-85
2021/05/17 16:18:01;;;;;;;3.20;1.90;;;24.00;50.20;;;;;;4954915;29;20508;-85
2021/05/17 16:23:36;;;;;;;2.60;1.83;;;24.10;50.30;;;;;;4972407;29;20425;-88
2021/05/17 16:26:51;;;;;;;;;;;;;;;;;;;;;
2021/05/17 16:30:03;;;;;;;;;;;;;;;;;;;;;
2021/05/17 16:39:37;;;;;;;;;;;;;;;;;;;;;
2021/05/17 16:42:13;;;;;;;3.67;2.27;;;23.90;50.20;;;;;;4971287;29;20449;-84
2021/05/17 16:52:16;;;;;;;3.47;2.20;;;24.10;50.30;;;;;;4905137;29;20431;-87
2021/05/17 16:55:26;;;;;;;;;;;;;;;;;;;;;
2021/05/17 17:02:08;;;;;;;3.10;1.97;;;24.10;50.40;;;;;;4840032;29;20399;-86
2021/05/17 17:11:00;;;;;;;2.60;1.90;;;24.10;50.40;;;;;;4806858;29;20430;-85
2021/05/17 17:13:45;;;;;;;1.80;1.50;;;24.10;50.40;;;;;;4843557;29;20415;-86
2021/05/17 17:16:28;;;;;;;1.80;1.40;;;24.00;50.30;;;;;;4842172;29;20435;-87
2021/05/17 17:19:04;;;;;;;3.23;2.03;;;24.10;50.40;;;;;;4834697;29;20546;-87
2021/05/17 17:21:31;;;;;;;1.77;1.50;;;24.10;50.40;;;;;;4841708;29;20466;-87
2021/05/17 17:23:59;;;;;;;2.50;1.83;;;24.10;50.30;;;;;;4858733;29;20443;-87
2021/05/17 17:26:55;;;;;;;;;;;;;;;;;;;;;
2021/05/17 17:29:25;;;;;;;1.90;1.50;;;24.10;50.30;;;;;;4958274;29;20430;-87
2021/05/17 17:31:57;;;;;;;2.10;1.63;;;24.10;50.30;;;;;;4971267;29;20438;-86
2021/05/17 17:34:23;;;;;;;2.10;1.90;;;24.20;50.30;;;;;;4955300;29;20474;-86
2021/05/17 17:36:49;;;;;;;2.90;1.80;;;24.20;50.30;;;;;;4956102;28;20526;-86
2021/05/17 17:43:32;;;;;;;;;;;;;;;;;;;;;
2021/05/17 17:46:43;;;;;;;;;;;;;;;;;;;;;
2021/05/17 17:49:10;;;;;;;2.03;1.47;;;24.10;50.30;;;;;;4970564;29;20452;-85
2021/05/17 17:56:42;;;;;;;2.53;1.67;;;24.20;50.30;;;;;;4802312;30;20471;-87
2021/05/17 18:06:22;;;;;;;2.57;1.60;;;24.10;50.30;;;;;;4820348;29;20481;-87
2021/05/17 18:09:34;;;;;;;;;;;;;;;;;;;;;
2021/05/17 18:29:10;;;;;;;1.97;1.60;;;24.10;50.40;;;;;;4886774;29;20453;-85
2021/05/17 18:31:53;;;;;;;2.20;1.60;;;24.10;50.40;;;;;;4895645;29;20425;-85
2021/05/17 18:37:23;;;;;;;2.97;2.03;;;24.20;50.50;;;;;;4897307;29;20418;-86
2021/05/17 18:40:00;;;;;;;2.20;1.73;;;24.10;50.50;;;;;;4931341;29;20419;-86
2021/05/17 18:42:36;;;;;;;1.90;1.40;;;24.20;50.50;;;;;;4947445;29;21048;-85
2021/05/17 18:45:28;;;;;;;1.93;1.53;;;24.10;50.40;;;;;;4932729;29;20438;-85
2021/05/17 18:48:05;;;;;;;2.03;1.60;;;24.20;50.50;;;;;;4931628;29;20415;-85
2021/05/17 18:57:34;;;;;;;1.50;1.40;;;24.20;50.50;;;;;;4950986;29;20481;-86
2021/05/17 19:16:57;;;;;;;;;;;;;;;;;;;;;
2021/05/17 20:20:46;;;;;;;2.77;1.60;;;24.10;50.50;;;;;;4854475;29;20444;-84
2021/05/17 20:26:45;;;;;;;1.93;1.40;;;24.10;50.50;;;;;;4818381;29;20388;-84
2021/05/17 20:42:56;;;;;;;1.63;1.50;;;24.10;50.50;;;;;;4873362;29;20390;-86
2021/05/17 20:45:27;;;;;;;3.37;1.67;;;24.00;50.60;;;;;;4859302;29;20419;-86
2021/05/17 20:48:02;;;;;;;1.33;1.23;;;24.00;50.60;;;;;;4880162;29;20421;-86
2021/05/17 20:50:35;;;;;;;2.00;1.33;;;24.00;50.60;;;;;;4912722;29;20424;-86
2021/05/17 20:53:09;;;;;;;2.40;1.50;;;24.00;50.50;;;;;;4893073;29;20433;-86
2021/05/17 20:55:37;;;;;;;2.33;1.33;;;24.00;50.60;;;;;;4931701;29;20452;-85
2021/05/17 20:58:07;;;;;;;2.97;1.50;;;24.00;50.50;;;;;;4915446;29;20471;-85
2021/05/17 21:00:52;;;;;;;;;;;;;;;;;;;;;
2021/05/17 21:03:19;;;;;;;1.40;0.97;;;24.00;50.50;;;;;;4935250;29;20458;-85
2021/05/17 21:05:46;;;;;;;2.50;1.63;;;24.00;50.50;;;;;;4934061;29;20809;-84
2021/05/17 21:08:14;;;;;;;3.20;1.10;;;24.00;50.50;;;;;;4934338;29;20431;-84
2021/05/17 21:10:43;;;;;;;2.60;1.30;;;24.00;50.50;;;;;;4933666;29;20427;-83
2021/05/17 21:13:14;;;;;;;1.73;1.20;;;24.00;50.80;;;;;;5009028;28;20515;-85
2021/05/17 21:15:44;;;;;;;2.40;1.20;;;23.50;50.00;;;;;;5032011;28;20422;-85
2021/05/17 21:18:16;;;;;;;2.33;1.20;;;23.90;50.40;;;;;;5032978;28;20481;-86
2021/05/17 21:20:45;;;;;;;1.50;1.00;;;23.90;50.40;;;;;;5032288;28;20419;-85
2021/05/17 21:23:15;;;;;;;1.60;1.00;;;23.90;50.40;;;;;;5007201;28;20424;-86
2021/05/17 21:26:37;;;;;;;1.47;1.20;;;23.90;50.50;;;;;;4999825;28;20500;-85
2021/05/17 21:29:11;;;;;;;1.90;1.20;;;23.90;50.50;;;;;;5035675;28;20934;-85
2021/05/17 21:31:39;;;;;;;2.43;1.40;;;23.90;50.50;;;;;;5053606;28;20409;-85
2021/05/17 21:34:09;;;;;;;1.53;1.17;;;23.90;50.70;;;;;;5053103;28;20484;-85
2021/05/17 21:36:37;;;;;;;2.23;1.40;;;23.90;51.00;;;;;;5036269;28;20477;-85
2021/05/17 21:39:04;;;;;;;1.50;0.90;;;23.80;50.60;;;;;;5033619;28;20458;-87
2021/05/17 21:41:30;;;;;;;1.80;1.20;;;23.80;50.60;;;;;;5033513;28;20422;-87
2021/05/17 21:43:56;;;;;;;1.53;1.10;;;23.90;51.00;;;;;;5033158;28;20434;-85
2021/05/17 21:46:26;;;;;;;2.20;1.10;;;23.90;50.80;;;;;;5033697;28;20449;-84
2021/05/17 21:49:05;;;;;;;1.40;0.90;;;23.90;50.50;;;;;;5033426;28;20422;-83
2021/05/17 21:51:36;;;;;;;1.67;1.07;;;23.70;50.40;;;;;;5033484;28;20453;-84
2021/05/17 21:54:04;;;;;;;2.13;1.20;;;23.90;50.70;;;;;;5051213;28;20399;-86
2021/05/17 21:56:31;;;;;;;1.77;1.20;;;23.90;50.70;;;;;;5034657;28;21034;-87
2021/05/17 21:58:57;;;;;;;1.63;1.00;;;23.90;50.90;;;;;;5017782;28;20497;-87
2021/05/17 22:01:25;;;;;;;1.40;1.07;;;23.90;50.70;;;;;;5051411;28;20466;-87
2021/05/17 22:03:52;;;;;;;1.70;1.03;;;23.90;50.60;;;;;;5033526;28;20504;-87
2021/05/17 22:06:24;;;;;;;1.90;1.27;;;23.90;50.70;;;;;;5034360;28;20415;-87
2021/05/17 22:10:11;;;;;;;2.60;1.40;;;23.90;50.60;;;;;;5035556;28;20526;-87
2021/05/17 22:12:41;;;;;;;1.53;1.10;;;23.90;50.50;;;;;;4937119;28;20425;-87
2021/05/17 22:15:09;;;;;;;1.50;1.07;;;23.90;50.70;;;;;;5033977;28;20407;-87
2021/05/17 22:17:35;;;;;;;2.27;1.30;;;23.90;50.80;;;;;;5051692;28;20476;-86
2021/05/17 22:20:03;;;;;;;2.07;1.10;;;23.90;50.80;;;;;;5052155;28;20900;-86
2021/05/17 22:22:29;;;;;;;2.07;1.43;;;23.90;50.70;;;;;;5052645;28;20411;-86
2021/05/17 22:24:55;;;;;;;2.03;1.50;;;23.90;50.90;;;;;;5033249;28;20777;-86
2021/05/17 22:28:07;;;;;;;1.50;1.30;;;23.90;51.00;;;;;;5051921;28;20179;-85
2021/05/17 22:30:36;;;;;;;1.67;1.20;;;23.90;50.50;;;;;;5051944;28;20399;-84
2021/05/17 22:33:10;;;;;;;1.77;1.20;;;23.80;50.50;;;;;;5049817;28;20393;-83
2021/05/17 22:35:36;;;;;;;1.80;0.90;;;23.80;50.50;;;;;;5032090;28;20411;-83
2021/05/17 22:38:07;;;;;;;1.70;1.00;;;23.80;50.60;;;;;;5032664;28;20489;-84
2021/05/17 22:40:33;;;;;;;1.27;1.10;;;23.80;50.50;;;;;;5050184;28;20780;-83
2021/05/17 22:42:58;;;;;;;1.33;1.20;;;23.80;51.00;;;;;;5032393;28;20418;-83
2021/05/17 22:48:52;;;;;;;1.77;0.93;;;23.80;50.50;;;;;;5049548;28;20436;-84
2021/05/17 22:51:30;;;;;;;1.70;0.97;;;23.70;50.70;;;;;;5051660;28;20462;-83
2021/05/17 22:53:57;;;;;;;1.27;0.87;;;23.70;50.80;;;;;;5050365;28;20402;-83
2021/05/17 22:56:24;;;;;;;2.30;1.23;;;23.70;50.70;;;;;;5033678;28;20418;-86
2021/05/17 22:58:54;;;;;;;1.30;1.10;;;23.70;50.70;;;;;;5032840;28;20461;-86
2021/05/17 23:01:20;;;;;;;1.37;0.97;;;23.70;50.70;;;;;;5033196;28;20418;-86
2021/05/17 23:03:47;;;;;;;1.93;1.07;;;23.70;50.70;;;;;;5016075;28;20441;-86
2021/05/17 23:06:13;;;;;;;1.70;1.20;;;23.70;51.00;;;;;;5033025;28;20437;-86
2021/05/17 23:08:43;;;;;;;1.20;0.90;;;23.70;51.00;;;;;;5050449;28;20850;-86
2021/05/17 23:11:09;;;;;;;1.97;1.30;;;23.70;50.60;;;;;;5032554;28;20494;-87
2021/05/17 23:13:35;;;;;;;2.43;1.40;;;23.70;51.00;;;;;;5033232;28;20430;-85
2021/05/17 23:16:01;;;;;;;1.30;0.93;;;23.70;51.10;;;;;;5034424;28;20176;-85
2021/05/17 23:18:29;;;;;;;2.17;1.13;;;23.70;50.70;;;;;;5032780;28;20466;-85
2021/05/17 23:23:51;;;;;;;1.37;1.00;;;23.60;50.80;;;;;;5049989;28;20455;-82
2021/05/17 23:29:02;;;;;;;1.60;1.00;;;23.60;50.70;;;;;;5049714;28;20402;-87
2021/05/17 23:31:28;;;;;;;2.17;1.00;;;23.60;50.90;;;;;;5049840;28;20482;-83
2021/05/17 23:33:54;;;;;;;1.20;1.00;;;23.60;51.20;;;;;;5033219;28;20513;-84
2021/05/17 23:36:20;;;;;;;1.40;0.97;;;23.60;51.10;;;;;;5032725;28;20433;-84
2021/05/17 23:38:48;;;;;;;1.40;1.10;;;23.60;51.00;;;;;;5032196;28;20454;-83
2021/05/17 23:41:14;;;;;;;1.60;1.20;;;23.60;50.90;;;;;;5032461;28;20321;-86
2021/05/17 23:43:42;;;;;;;2.17;1.20;;;23.60;51.20;;;;;;5032576;28;20418;-85
2021/05/17 23:46:09;;;;;;;2.00;1.20;;;23.50;51.00;;;;;;5051200;28;20160;-84
2021/05/17 23:48:35;;;;;;;1.10;1.00;;;23.40;50.90;;;;;;5051738;28;20402;-85
2021/05/17 23:51:07;;;;;;;1.43;1.00;;;23.60;51.00;;;;;;5050874;28;20494;-85
2021/05/17 23:53:33;;;;;;;1.60;0.97;;;23.50;51.00;;;;;;5033590;28;20423;-85
2021/05/17 23:56:00;;;;;;;1.40;0.90;;;23.50;51.10;;;;;;5033576;28;20449;-85
2021/05/17 23:58:26;;;;;;;1.80;1.00;;;23.50;50.90;;;;;;5033376;28;20215;-85
